sensor_id;sensor_type;location;lat;lon;timestamp;temperature;humidity
27368;DHT22;14839;48.106;11.618;2024-02-16T05:00:42;4.60;94.60
27368;DHT22;14839;48.106;11.618;2024-02-16T05:03:08;4.60;94.60
27368;DHT22;14839;48.106;11.618;2024-02-16T05:05:33;4.60;94.60
27368;DHT22;14839;48.106;11.618;2024-02-16T05:07:59;4.60;94.60
27368;DHT22;14839;48.106;11.618;2024-02-16T05:10:25;4.60;94.60
27368;DHT22;14839;48.106;11.618;2024-02-16T05:12:50;4.70;94.60
27368;DHT22;14839;48.106;11.618;2024-02-16T05:15:16;4.70;94.60
27368;DHT22;14839;48.106;11.618;2024-02-16T05:17:42;4.80;94.60
27368;DHT22;14839;48.106;11.618;2024-02-16T05:20:11;4.80;94.60
27368;DHT22;14839;48.106;11.618;2024-02-16T05:22:46;4.80;94.60
27368;DHT22;14839;48.106;11.618;2024-02-16T05:25:13;4.80;94.60
27368;DHT22;14839;48.106;11.618;2024-02-16T05:27:39;4.70;94.60
27368;DHT22;14839;48.106;11.618;2024-02-16T05:30:05;4.70;94.60
27368;DHT22;14839;48.106;11.618;2024-02-16T05:32:35;4.90;94.60
27368;DHT22;14839;48.106;11.618;2024-02-16T05:35:01;4.90;94.60
27368;DHT22;14839;48.106;11.618;2024-02-16T05:37:30;5.00;94.60
27368;DHT22;14839;48.106;11.618;2024-02-16T05:39:57;5.00;94.60
27368;DHT22;14839;48.106;11.618;2024-02-16T05:42:34;5.00;94.60
27368;DHT22;14839;48.106;11.618;2024-02-16T05:44:59;5.10;94.60
27368;DHT22;14839;48.106;11.618;2024-02-16T05:47:25;5.10;94.60
27368;DHT22;14839;48.106;11.618;2024-02-16T05:49:51;5.10;94.60
27368;DHT22;14839;48.106;11.618;2024-02-16T05:52:16;5.10;94.60
27368;DHT22;14839;48.106;11.618;2024-02-16T05:54:46;5.20;94.60
27368;DHT22;14839;48.106;11.618;2024-02-16T05:57:13;5.20;94.60
27368;DHT22;14839;48.106;11.618;2024-02-16T05:59:38;5.20;94.60
27368;DHT22;14839;48.106;11.618;2024-02-16T06:02:05;5.20;94.60
27368;DHT22;14839;48.106;11.618;2024-02-16T06:04:31;5.20;94.60
27368;DHT22;14839;48.106;11.618;2024-02-16T06:06:57;5.20;94.60
27368;DHT22;14839;48.106;11.618;2024-02-16T06:09:23;5.20;94.60
27368;DHT22;14839;48.106;11.618;2024-02-16T06:11:48;5.10;94.60
27368;DHT22;14839;48.106;11.618;2024-02-16T06:14:14;5.10;94.60
27368;DHT22;14839;48.106;11.618;2024-02-16T06:16:40;5.10;94.60
27368;DHT22;14839;48.106;11.618;2024-02-16T06:19:07;5.10;94.60
27368;DHT22;14839;48.106;11.618;2024-02-16T06:21:34;5.10;94.60
27368;DHT22;14839;48.106;11.618;2024-02-16T06:23:59;5.20;94.60
27368;DHT22;14839;48.106;11.618;2024-02-16T06:26:25;5.20;94.60
27368;DHT22;14839;48.106;11.618;2024-02-16T06:28:50;5.30;94.60
27368;DHT22;14839;48.106;11.618;2024-02-16T06:31:16;5.30;94.60
27368;DHT22;14839;48.106;11.618;2024-02-16T06:33:41;5.40;94.60
27368;DHT22;14839;48.106;11.618;2024-02-16T06:36:07;5.50;94.60
27368;DHT22;14839;48.106;11.618;2024-02-16T06:38:34;5.50;94.60
27368;DHT22;14839;48.106;11.618;2024-02-16T06:41:00;5.50;94.60
27368;DHT22;14839;48.106;11.618;2024-02-16T06:43:26;5.50;94.60
27368;DHT22;14839;48.106;11.618;2024-02-16T06:45:51;5.50;94.60
27368;DHT22;14839;48.106;11.618;2024-02-16T06:48:17;5.70;94.60
27368;DHT22;14839;48.106;11.618;2024-02-16T06:50:42;5.80;94.60
27368;DHT22;14839;48.106;11.618;2024-02-16T06:53:08;6.00;94.60
27368;DHT22;14839;48.106;11.618;2024-02-16T06:55:33;6.20;94.60
27368;DHT22;14839;48.106;11.618;2024-02-16T06:57:59;6.40;94.60
27368;DHT22;14839;48.106;11.618;2024-02-16T07:00:24;6.50;94.60
27368;DHT22;14839;48.106;11.618;2024-02-16T07:02:50;6.60;94.60
27368;DHT22;14839;48.106;11.618;2024-02-16T07:05:16;6.60;94.60
27368;DHT22;14839;48.106;11.618;2024-02-16T07:07:43;6.70;94.60
27368;DHT22;14839;48.106;11.618;2024-02-16T07:10:08;6.70;94.60
27368;DHT22;14839;48.106;11.618;2024-02-16T07:12:39;6.90;94.60
27368;DHT22;14839;48.106;11.618;2024-02-16T07:15:05;7.10;94.60
27368;DHT22;14839;48.106;11.618;2024-02-16T07:17:30;7.30;94.60
27368;DHT22;14839;48.106;11.618;2024-02-16T07:19:56;7.50;94.60
27368;DHT22;14839;48.106;11.618;2024-02-16T07:22:22;7.70;94.60
27368;DHT22;14839;48.106;11.618;2024-02-16T07:24:47;7.90;94.60
27368;DHT22;14839;48.106;11.618;2024-02-16T07:27:13;8.00;94.60
27368;DHT22;14839;48.106;11.618;2024-02-16T07:29:39;8.00;94.60
27368;DHT22;14839;48.106;11.618;2024-02-16T07:32:05;8.10;94.60
27368;DHT22;14839;48.106;11.618;2024-02-16T07:34:30;8.10;94.60
27368;DHT22;14839;48.106;11.618;2024-02-16T07:36:56;8.30;94.60
27368;DHT22;14839;48.106;11.618;2024-02-16T07:39:22;8.60;94.60
27368;DHT22;14839;48.106;11.618;2024-02-16T07:41:49;8.70;94.10
27368;DHT22;14839;48.106;11.618;2024-02-16T07:44:14;8.90;93.30
27368;DHT22;14839;48.106;11.618;2024-02-16T07:46:41;9.00;93.50
27368;DHT22;14839;48.106;11.618;2024-02-16T07:49:07;9.10;93.20
27368;DHT22;14839;48.106;11.618;2024-02-16T07:51:32;9.50;92.90
27368;DHT22;14839;48.106;11.618;2024-02-16T07:53:58;9.70;91.60
27368;DHT22;14839;48.106;11.618;2024-02-16T07:56:23;10.00;91.00
27368;DHT22;14839;48.106;11.618;2024-02-16T07:58:49;10.20;90.40
27368;DHT22;14839;48.106;11.618;2024-02-16T08:01:14;10.20;90.10
27368;DHT22;14839;48.106;11.618;2024-02-16T08:03:43;10.30;90.10
27368;DHT22;14839;48.106;11.618;2024-02-16T08:06:08;10.90;88.70
27368;DHT22;14839;48.106;11.618;2024-02-16T08:08:34;11.40;86.50
27368;DHT22;14839;48.106;11.618;2024-02-16T08:10:59;11.60;85.90
27368;DHT22;14839;48.106;11.618;2024-02-16T08:13:25;11.60;85.70
27368;DHT22;14839;48.106;11.618;2024-02-16T08:15:50;11.50;85.00
27368;DHT22;14839;48.106;11.618;2024-02-16T08:18:17;11.40;85.40
27368;DHT22;14839;48.106;11.618;2024-02-16T08:20:43;11.40;86.20
27368;DHT22;14839;48.106;11.618;2024-02-16T08:23:08;11.30;87.80
27368;DHT22;14839;48.106;11.618;2024-02-16T08:25:34;11.50;87.80
27368;DHT22;14839;48.106;11.618;2024-02-16T08:28:00;11.50;88.30
27368;DHT22;14839;48.106;11.618;2024-02-16T08:30:27;11.60;88.30
27368;DHT22;14839;48.106;11.618;2024-02-16T08:32:53;11.50;89.20
27368;DHT22;14839;48.106;11.618;2024-02-16T08:35:19;11.50;89.50
27368;DHT22;14839;48.106;11.618;2024-02-16T08:37:45;11.70;88.30
27368;DHT22;14839;48.106;11.618;2024-02-16T08:40:12;11.70;86.90
27368;DHT22;14839;48.106;11.618;2024-02-16T08:42:40;11.50;88.40
27368;DHT22;14839;48.106;11.618;2024-02-16T08:45:08;11.80;86.90
27368;DHT22;14839;48.106;11.618;2024-02-16T08:47:33;11.70;88.90
27368;DHT22;14839;48.106;11.618;2024-02-16T08:49:59;12.00;87.70
27368;DHT22;14839;48.106;11.618;2024-02-16T08:52:24;12.00;86.50
27368;DHT22;14839;48.106;11.618;2024-02-16T08:54:50;12.00;85.90
27368;DHT22;14839;48.106;11.618;2024-02-16T08:57:15;12.30;85.00
27368;DHT22;14839;48.106;11.618;2024-02-16T08:59:41;12.30;86.00
27368;DHT22;14839;48.106;11.618;2024-02-16T09:02:07;12.60;83.80
27368;DHT22;14839;48.106;11.618;2024-02-16T09:04:32;12.90;82.40
27368;DHT22;14839;48.106;11.618;2024-02-16T09:06:59;13.00;81.10
27368;DHT22;14839;48.106;11.618;2024-02-16T09:09:24;12.90;80.30
27368;DHT22;14839;48.106;11.618;2024-02-16T09:11:50;12.80;82.00
27368;DHT22;14839;48.106;11.618;2024-02-16T09:14:16;12.70;81.80
27368;DHT22;14839;48.106;11.618;2024-02-16T09:16:42;12.70;83.20
27368;DHT22;14839;48.106;11.618;2024-02-16T09:19:07;13.00;82.00
27368;DHT22;14839;48.106;11.618;2024-02-16T09:21:33;13.00;79.40
27368;DHT22;14839;48.106;11.618;2024-02-16T09:23:59;13.20;79.00
27368;DHT22;14839;48.106;11.618;2024-02-16T09:26:27;13.20;77.90
27368;DHT22;14839;48.106;11.618;2024-02-16T09:28:56;13.50;77.60
27368;DHT22;14839;48.106;11.618;2024-02-16T09:31:22;13.70;76.10
27368;DHT22;14839;48.106;11.618;2024-02-16T09:33:48;13.70;75.50
27368;DHT22;14839;48.106;11.618;2024-02-16T09:36:14;13.80;75.70
27368;DHT22;14839;48.106;11.618;2024-02-16T09:38:39;14.00;74.90
27368;DHT22;14839;48.106;11.618;2024-02-16T09:41:05;14.30;73.90
27368;DHT22;14839;48.106;11.618;2024-02-16T09:43:31;14.40;73.30
27368;DHT22;14839;48.106;11.618;2024-02-16T09:45:57;14.70;70.90
27368;DHT22;14839;48.106;11.618;2024-02-16T09:48:25;14.80;70.90
27368;DHT22;14839;48.106;11.618;2024-02-16T09:50:54;14.60;72.10
27368;DHT22;14839;48.106;11.618;2024-02-16T09:53:20;14.40;73.00
27368;DHT22;14839;48.106;11.618;2024-02-16T09:55:49;14.30;72.70
27368;DHT22;14839;48.106;11.618;2024-02-16T09:58:16;14.40;71.30
27368;DHT22;14839;48.106;11.618;2024-02-16T10:00:47;14.50;71.90
27368;DHT22;14839;48.106;11.618;2024-02-16T10:03:22;14.60;71.60
27368;DHT22;14839;48.106;11.618;2024-02-16T10:05:47;14.70;70.90
27368;DHT22;14839;48.106;11.618;2024-02-16T10:08:13;14.90;70.10
27368;DHT22;14839;48.106;11.618;2024-02-16T10:10:39;15.00;67.90
27368;DHT22;14839;48.106;11.618;2024-02-16T10:13:07;15.00;68.30
27368;DHT22;14839;48.106;11.618;2024-02-16T10:15:34;15.20;67.70
27368;DHT22;14839;48.106;11.618;2024-02-16T10:18:04;15.50;68.20
27368;DHT22;14839;48.106;11.618;2024-02-16T10:20:32;16.40;65.90
27368;DHT22;14839;48.106;11.618;2024-02-16T10:23:10;16.80;61.10
27368;DHT22;14839;48.106;11.618;2024-02-16T10:25:37;16.80;63.10
27368;DHT22;14839;48.106;11.618;2024-02-16T10:28:05;17.10;60.80
27368;DHT22;14839;48.106;11.618;2024-02-16T10:30:35;17.30;62.50
27368;DHT22;14839;48.106;11.618;2024-02-16T10:33:02;17.80;57.90
27368;DHT22;14839;48.106;11.618;2024-02-16T10:35:28;18.20;57.60
27368;DHT22;14839;48.106;11.618;2024-02-16T10:37:55;18.40;56.60
27368;DHT22;14839;48.106;11.618;2024-02-16T10:40:23;18.10;55.50
27368;DHT22;14839;48.106;11.618;2024-02-16T10:42:51;18.00;55.80
27368;DHT22;14839;48.106;11.618;2024-02-16T10:45:17;18.60;56.40
27368;DHT22;14839;48.106;11.618;2024-02-16T10:47:44;18.80;54.70
27368;DHT22;14839;48.106;11.618;2024-02-16T10:50:11;19.20;54.10
27368;DHT22;14839;48.106;11.618;2024-02-16T10:52:40;19.60;51.90
27368;DHT22;14839;48.106;11.618;2024-02-16T10:55:07;19.40;50.80
27368;DHT22;14839;48.106;11.618;2024-02-16T10:57:36;18.80;53.60
27368;DHT22;14839;48.106;11.618;2024-02-16T11:00:08;19.00;54.20
27368;DHT22;14839;48.106;11.618;2024-02-16T11:02:54;19.10;52.00
27368;DHT22;14839;48.106;11.618;2024-02-16T11:05:32;18.90;53.00
27368;DHT22;14839;48.106;11.618;2024-02-16T11:08:04;18.70;53.80
27368;DHT22;14839;48.106;11.618;2024-02-16T11:10:31;18.40;54.50
27368;DHT22;14839;48.106;11.618;2024-02-16T11:13:03;18.40;55.30
27368;DHT22;14839;48.106;11.618;2024-02-16T11:15:34;18.90;53.00
27368;DHT22;14839;48.106;11.618;2024-02-16T11:18:02;19.30;52.90
27368;DHT22;14839;48.106;11.618;2024-02-16T11:20:28;19.20;52.90
27368;DHT22;14839;48.106;11.618;2024-02-16T11:23:04;19.20;52.70
27368;DHT22;14839;48.106;11.618;2024-02-16T11:25:31;19.20;53.00
27368;DHT22;14839;48.106;11.618;2024-02-16T11:27:58;19.20;53.60
27368;DHT22;14839;48.106;11.618;2024-02-16T11:30:23;19.30;53.20
27368;DHT22;14839;48.106;11.618;2024-02-16T11:32:51;19.50;52.70
27368;DHT22;14839;48.106;11.618;2024-02-16T11:35:16;19.40;52.70
27368;DHT22;14839;48.106;11.618;2024-02-16T11:37:42;19.40;53.30
27368;DHT22;14839;48.106;11.618;2024-02-16T11:40:11;19.10;53.60
27368;DHT22;14839;48.106;11.618;2024-02-16T11:42:37;19.20;53.90
27368;DHT22;14839;48.106;11.618;2024-02-16T11:45:03;19.20;53.50
27368;DHT22;14839;48.106;11.618;2024-02-16T11:47:29;19.10;53.90
27368;DHT22;14839;48.106;11.618;2024-02-16T11:50:02;19.30;54.10
27368;DHT22;14839;48.106;11.618;2024-02-16T11:55:50;19.30;53.60
27368;DHT22;14839;48.106;11.618;2024-02-16T11:58:19;19.30;53.60
27368;DHT22;14839;48.106;11.618;2024-02-16T12:00:46;19.30;54.80
27368;DHT22;14839;48.106;11.618;2024-02-16T12:03:18;19.20;53.60
27368;DHT22;14839;48.106;11.618;2024-02-16T12:05:52;19.20;54.10
27368;DHT22;14839;48.106;11.618;2024-02-16T12:08:18;19.20;54.10
27368;DHT22;14839;48.106;11.618;2024-02-16T12:10:44;19.20;54.20
27368;DHT22;14839;48.106;11.618;2024-02-16T12:13:10;19.20;55.00
27368;DHT22;14839;48.106;11.618;2024-02-16T12:15:38;19.10;55.00
27368;DHT22;14839;48.106;11.618;2024-02-16T12:18:04;19.10;55.10
27368;DHT22;14839;48.106;11.618;2024-02-16T12:20:30;19.20;55.50
27368;DHT22;14839;48.106;11.618;2024-02-16T12:22:59;19.20;55.00
27368;DHT22;14839;48.106;11.618;2024-02-16T12:25:27;19.20;55.10
27368;DHT22;14839;48.106;11.618;2024-02-16T12:27:53;19.00;55.00
27368;DHT22;14839;48.106;11.618;2024-02-16T12:30:18;19.00;55.50
27368;DHT22;14839;48.106;11.618;2024-02-16T12:32:44;19.10;56.10
27368;DHT22;14839;48.106;11.618;2024-02-16T12:38:32;19.20;56.70
27368;DHT22;14839;48.106;11.618;2024-02-16T12:40:58;19.20;56.60
27368;DHT22;14839;48.106;11.618;2024-02-16T12:43:23;19.10;57.30
27368;DHT22;14839;48.106;11.618;2024-02-16T12:45:49;19.20;56.40
27368;DHT22;14839;48.106;11.618;2024-02-16T12:48:14;19.10;56.70
27368;DHT22;14839;48.106;11.618;2024-02-16T12:50:40;18.90;57.80
27368;DHT22;14839;48.106;11.618;2024-02-16T12:53:07;18.90;58.20
27368;DHT22;14839;48.106;11.618;2024-02-16T12:55:33;19.00;57.80
27368;DHT22;14839;48.106;11.618;2024-02-16T12:57:58;19.10;57.80
27368;DHT22;14839;48.106;11.618;2024-02-16T13:00:24;19.10;57.80
27368;DHT22;14839;48.106;11.618;2024-02-16T13:02:50;19.00;58.20
27368;DHT22;14839;48.106;11.618;2024-02-16T13:05:16;18.80;59.40
27368;DHT22;14839;48.106;11.618;2024-02-16T13:07:41;18.70;60.10
27368;DHT22;14839;48.106;11.618;2024-02-16T13:10:09;18.60;60.40
27368;DHT22;14839;48.106;11.618;2024-02-16T13:12:35;18.50;61.30
27368;DHT22;14839;48.106;11.618;2024-02-16T13:15:03;18.50;61.40
27368;DHT22;14839;48.106;11.618;2024-02-16T13:17:29;18.40;61.60
27368;DHT22;14839;48.106;11.618;2024-02-16T13:19:55;18.40;61.90
27368;DHT22;14839;48.106;11.618;2024-02-16T13:22:23;18.30;61.90
27368;DHT22;14839;48.106;11.618;2024-02-16T13:24:48;18.40;61.60
27368;DHT22;14839;48.106;11.618;2024-02-16T13:27:14;18.30;61.30
27368;DHT22;14839;48.106;11.618;2024-02-16T13:29:40;18.20;61.60
27368;DHT22;14839;48.106;11.618;2024-02-16T13:32:05;18.30;61.60
27368;DHT22;14839;48.106;11.618;2024-02-16T13:34:31;18.30;60.80
27368;DHT22;14839;48.106;11.618;2024-02-16T13:36:56;18.30;60.50
27368;DHT22;14839;48.106;11.618;2024-02-16T13:39:22;18.20;61.60
27368;DHT22;14839;48.106;11.618;2024-02-16T13:41:48;18.20;61.10
27368;DHT22;14839;48.106;11.618;2024-02-16T13:44:17;18.20;61.60
27368;DHT22;14839;48.106;11.618;2024-02-16T13:46:44;18.30;61.60
27368;DHT22;14839;48.106;11.618;2024-02-16T13:49:11;18.30;62.30
27368;DHT22;14839;48.106;11.618;2024-02-16T13:51:37;18.30;62.80
27368;DHT22;14839;48.106;11.618;2024-02-16T13:54:03;18.30;64.00
27368;DHT22;14839;48.106;11.618;2024-02-16T13:56:28;18.20;64.60
27368;DHT22;14839;48.106;11.618;2024-02-16T13:58:54;18.20;64.00
27368;DHT22;14839;48.106;11.618;2024-02-16T14:01:19;18.10;64.30
27368;DHT22;14839;48.106;11.618;2024-02-16T14:03:45;18.10;64.10
27368;DHT22;14839;48.106;11.618;2024-02-16T14:06:10;17.90;64.70
27368;DHT22;14839;48.106;11.618;2024-02-16T14:08:37;17.90;65.20
27368;DHT22;14839;48.106;11.618;2024-02-16T14:11:02;17.90;64.70
27368;DHT22;14839;48.106;11.618;2024-02-16T14:13:28;17.90;64.90
27368;DHT22;14839;48.106;11.618;2024-02-16T14:15:54;17.90;65.50
27368;DHT22;14839;48.106;11.618;2024-02-16T14:18:19;17.90;65.20
27368;DHT22;14839;48.106;11.618;2024-02-16T14:20:45;17.90;65.20
27368;DHT22;14839;48.106;11.618;2024-02-16T14:23:11;17.90;65.80
27368;DHT22;14839;48.106;11.618;2024-02-16T14:25:37;17.80;65.60
27368;DHT22;14839;48.106;11.618;2024-02-16T14:28:03;17.80;66.20
27368;DHT22;14839;48.106;11.618;2024-02-16T14:30:29;17.70;66.20
27368;DHT22;14839;48.106;11.618;2024-02-16T14:32:54;17.70;66.50
27368;DHT22;14839;48.106;11.618;2024-02-16T14:35:20;17.70;67.10
27368;DHT22;14839;48.106;11.618;2024-02-16T14:37:47;17.70;66.70
27368;DHT22;14839;48.106;11.618;2024-02-16T14:40:13;17.70;66.50
27368;DHT22;14839;48.106;11.618;2024-02-16T14:42:39;17.80;66.70
27368;DHT22;14839;48.106;11.618;2024-02-16T14:45:05;17.90;66.50
27368;DHT22;14839;48.106;11.618;2024-02-16T14:47:35;17.90;65.90
27368;DHT22;14839;48.106;11.618;2024-02-16T14:50:00;17.80;66.50
27368;DHT22;14839;48.106;11.618;2024-02-16T14:52:26;17.90;66.80
27368;DHT22;14839;48.106;11.618;2024-02-16T14:54:52;18.00;66.50
27368;DHT22;14839;48.106;11.618;2024-02-16T14:57:17;18.10;66.20
27368;DHT22;14839;48.106;11.618;2024-02-16T14:59:45;18.20;65.30
27368;DHT22;14839;48.106;11.618;2024-02-16T15:02:11;18.10;65.80
27368;DHT22;14839;48.106;11.618;2024-02-16T15:04:36;18.10;65.80
27368;DHT22;14839;48.106;11.618;2024-02-16T15:07:03;17.90;66.10
27368;DHT22;14839;48.106;11.618;2024-02-16T15:09:29;17.80;67.00
27368;DHT22;14839;48.106;11.618;2024-02-16T15:11:55;17.70;67.40
27368;DHT22;14839;48.106;11.618;2024-02-16T15:14:20;17.50;67.90
27368;DHT22;14839;48.106;11.618;2024-02-16T15:16:46;17.30;68.30
27368;DHT22;14839;48.106;11.618;2024-02-16T15:19:11;17.20;68.60
27368;DHT22;14839;48.106;11.618;2024-02-16T15:21:37;17.00;69.20
27368;DHT22;14839;48.106;11.618;2024-02-16T15:24:03;16.90;69.70
27368;DHT22;14839;48.106;11.618;2024-02-16T15:26:29;16.80;70.60
27368;DHT22;14839;48.106;11.618;2024-02-16T15:28:54;16.60;71.20
27368;DHT22;14839;48.106;11.618;2024-02-16T15:31:20;16.50;72.10
27368;DHT22;14839;48.106;11.618;2024-02-16T15:33:45;16.20;72.20
27368;DHT22;14839;48.106;11.618;2024-02-16T15:36:11;16.10;72.50
27368;DHT22;14839;48.106;11.618;2024-02-16T15:38:36;16.00;72.40
27368;DHT22;14839;48.106;11.618;2024-02-16T15:41:02;15.90;72.80
27368;DHT22;14839;48.106;11.618;2024-02-16T15:43:28;15.70;72.80
27368;DHT22;14839;48.106;11.618;2024-02-16T15:45:53;15.60;73.30
27368;DHT22;14839;48.106;11.618;2024-02-16T15:48:19;15.50;73.60
27368;DHT22;14839;48.106;11.618;2024-02-16T15:50:44;15.50;74.20
27368;DHT22;14839;48.106;11.618;2024-02-16T15:53:10;15.40;74.50
27368;DHT22;14839;48.106;11.618;2024-02-16T15:55:36;15.20;75.10
27368;DHT22;14839;48.106;11.618;2024-02-16T15:58:02;15.10;75.70
27368;DHT22;14839;48.106;11.618;2024-02-16T16:00:28;15.00;75.50
27368;DHT22;14839;48.106;11.618;2024-02-16T16:02:53;14.90;75.80
27368;DHT22;14839;48.106;11.618;2024-02-16T16:05:19;14.80;76.00
27368;DHT22;14839;48.106;11.618;2024-02-16T16:07:45;14.70;76.40
27368;DHT22;14839;48.106;11.618;2024-02-16T16:10:10;14.60;76.70
27368;DHT22;14839;48.106;11.618;2024-02-16T16:12:36;14.50;77.30
27368;DHT22;14839;48.106;11.618;2024-02-16T16:15:02;14.40;77.20
27368;DHT22;14839;48.106;11.618;2024-02-16T16:17:28;14.30;77.90
27368;DHT22;14839;48.106;11.618;2024-02-16T16:19:54;14.20;78.40
27368;DHT22;14839;48.106;11.618;2024-02-16T16:22:20;14.20;78.70
27368;DHT22;14839;48.106;11.618;2024-02-16T16:24:46;14.00;79.00
27368;DHT22;14839;48.106;11.618;2024-02-16T16:27:11;14.00;79.10
27368;DHT22;14839;48.106;11.618;2024-02-16T16:29:37;14.10;78.80
27368;DHT22;14839;48.106;11.618;2024-02-16T16:32:05;13.90;79.30
27368;DHT22;14839;48.106;11.618;2024-02-16T16:34:31;13.70;80.20
27368;DHT22;14839;48.106;11.618;2024-02-16T16:36:57;13.60;80.80
27368;DHT22;14839;48.106;11.618;2024-02-16T16:39:22;13.60;81.10
27368;DHT22;14839;48.106;11.618;2024-02-16T16:41:48;13.60;81.20
27368;DHT22;14839;48.106;11.618;2024-02-16T16:44:13;13.50;81.40
27368;DHT22;14839;48.106;11.618;2024-02-16T16:46:39;13.50;81.50
27368;DHT22;14839;48.106;11.618;2024-02-16T16:49:05;13.40;81.70
27368;DHT22;14839;48.106;11.618;2024-02-16T16:51:31;13.40;82.30
27368;DHT22;14839;48.106;11.618;2024-02-16T16:53:56;13.40;82.30
27368;DHT22;14839;48.106;11.618;2024-02-16T16:56:22;13.30;82.40
27368;DHT22;14839;48.106;11.618;2024-02-16T16:58:47;13.30;82.60
27368;DHT22;14839;48.106;11.618;2024-02-16T17:01:13;13.30;82.40
27368;DHT22;14839;48.106;11.618;2024-02-16T17:03:40;13.30;82.40
27368;DHT22;14839;48.106;11.618;2024-02-16T17:06:05;13.30;82.60
27368;DHT22;14839;48.106;11.618;2024-02-16T17:08:32;13.30;82.60
27368;DHT22;14839;48.106;11.618;2024-02-16T17:10:58;13.20;82.70
27368;DHT22;14839;48.106;11.618;2024-02-16T17:13:26;13.30;82.70
27368;DHT22;14839;48.106;11.618;2024-02-16T17:15:52;13.20;82.70
27368;DHT22;14839;48.106;11.618;2024-02-16T17:18:18;13.20;82.90
27368;DHT22;14839;48.106;11.618;2024-02-16T17:20:45;13.20;83.00
27368;DHT22;14839;48.106;11.618;2024-02-16T17:23:12;13.20;83.00
27368;DHT22;14839;48.106;11.618;2024-02-16T17:25:38;13.20;82.90
27368;DHT22;14839;48.106;11.618;2024-02-16T17:28:04;13.20;83.20
27368;DHT22;14839;48.106;11.618;2024-02-16T17:30:30;13.10;83.30
27368;DHT22;14839;48.106;11.618;2024-02-16T17:32:58;13.20;83.30
27368;DHT22;14839;48.106;11.618;2024-02-16T17:35:25;13.10;83.50
27368;DHT22;14839;48.106;11.618;2024-02-16T17:37:51;13.10;83.90
27368;DHT22;14839;48.106;11.618;2024-02-16T17:40:18;13.10;84.10
27368;DHT22;14839;48.106;11.618;2024-02-16T17:42:44;13.10;83.90
27368;DHT22;14839;48.106;11.618;2024-02-16T17:45:12;13.10;83.90
27368;DHT22;14839;48.106;11.618;2024-02-16T17:47:38;13.10;84.10
27368;DHT22;14839;48.106;11.618;2024-02-16T17:50:04;13.00;84.20
27368;DHT22;14839;48.106;11.618;2024-02-16T17:52:30;13.00;84.20
27368;DHT22;14839;48.106;11.618;2024-02-16T17:54:56;13.00;84.40
27368;DHT22;14839;48.106;11.618;2024-02-16T17:57:22;12.90;84.70
27368;DHT22;14839;48.106;11.618;2024-02-16T17:59:47;12.90;84.80
27368;DHT22;14839;48.106;11.618;2024-02-16T18:02:17;12.90;84.80
27368;DHT22;14839;48.106;11.618;2024-02-16T18:04:43;12.90;84.80
27368;DHT22;14839;48.106;11.618;2024-02-16T18:07:10;12.90;85.10
27368;DHT22;14839;48.106;11.618;2024-02-16T18:09:42;12.80;85.30
27368;DHT22;14839;48.106;11.618;2024-02-16T18:12:07;12.80;85.30
27368;DHT22;14839;48.106;11.618;2024-02-16T18:14:34;12.80;85.40
27368;DHT22;14839;48.106;11.618;2024-02-16T18:16:59;12.70;85.60
27368;DHT22;14839;48.106;11.618;2024-02-16T18:19:25;12.70;85.70
27368;DHT22;14839;48.106;11.618;2024-02-16T18:21:51;12.70;85.90
27368;DHT22;14839;48.106;11.618;2024-02-16T18:24:17;12.70;86.00
27368;DHT22;14839;48.106;11.618;2024-02-16T18:26:43;12.60;86.30
27368;DHT22;14839;48.106;11.618;2024-02-16T18:29:08;12.60;86.60
27368;DHT22;14839;48.106;11.618;2024-02-16T18:31:34;12.50;86.60
27368;DHT22;14839;48.106;11.618;2024-02-16T18:34:02;12.50;86.90
27368;DHT22;14839;48.106;11.618;2024-02-16T18:36:28;12.50;87.10
27368;DHT22;14839;48.106;11.618;2024-02-16T18:38:54;12.50;87.40
27368;DHT22;14839;48.106;11.618;2024-02-16T18:41:20;12.40;87.80
27368;DHT22;14839;48.106;11.618;2024-02-16T18:43:45;12.40;88.10
27368;DHT22;14839;48.106;11.618;2024-02-16T18:46:11;12.40;88.30
27368;DHT22;14839;48.106;11.618;2024-02-16T18:48:38;12.40;88.30
27368;DHT22;14839;48.106;11.618;2024-02-16T18:51:04;12.30;88.60
27368;DHT22;14839;48.106;11.618;2024-02-16T18:53:30;12.30;88.70
27368;DHT22;14839;48.106;11.618;2024-02-16T18:55:55;12.30;89.00
27368;DHT22;14839;48.106;11.618;2024-02-16T18:58:22;12.20;89.20
27368;DHT22;14839;48.106;11.618;2024-02-16T19:00:48;12.20;89.30
27368;DHT22;14839;48.106;11.618;2024-02-16T19:03:15;12.20;89.60
27368;DHT22;14839;48.106;11.618;2024-02-16T19:05:41;12.10;89.80
27368;DHT22;14839;48.106;11.618;2024-02-16T19:08:07;12.10;89.90
27368;DHT22;14839;48.106;11.618;2024-02-16T19:10:32;12.10;90.10
27368;DHT22;14839;48.106;11.618;2024-02-16T19:12:58;12.10;90.10
27368;DHT22;14839;48.106;11.618;2024-02-16T19:15:24;12.10;90.30
27368;DHT22;14839;48.106;11.618;2024-02-16T19:18:00;12.00;90.40
27368;DHT22;14839;48.106;11.618;2024-02-16T19:20:26;12.00;90.50
27368;DHT22;14839;48.106;11.618;2024-02-16T19:22:52;12.00;90.70
27368;DHT22;14839;48.106;11.618;2024-02-16T19:25:22;12.00;90.70
27368;DHT22;14839;48.106;11.618;2024-02-16T19:27:48;11.90;90.90
27368;DHT22;14839;48.106;11.618;2024-02-16T19:30:15;11.90;91.10
27368;DHT22;14839;48.106;11.618;2024-02-16T19:32:41;11.80;91.10
27368;DHT22;14839;48.106;11.618;2024-02-16T19:35:07;11.80;91.40
27368;DHT22;14839;48.106;11.618;2024-02-16T19:37:34;11.80;91.70
27368;DHT22;14839;48.106;11.618;2024-02-16T19:40:00;11.70;91.90
27368;DHT22;14839;48.106;11.618;2024-02-16T19:42:25;11.70;91.90
27368;DHT22;14839;48.106;11.618;2024-02-16T19:44:51;11.70;92.10
27368;DHT22;14839;48.106;11.618;2024-02-16T19:47:16;11.70;92.20
27368;DHT22;14839;48.106;11.618;2024-02-16T19:49:42;11.70;92.40
27368;DHT22;14839;48.106;11.618;2024-02-16T19:52:07;11.70;92.60
27368;DHT22;14839;48.106;11.618;2024-02-16T19:54:33;11.70;92.60
27368;DHT22;14839;48.106;11.618;2024-02-16T19:56:58;11.70;92.80
27368;DHT22;14839;48.106;11.618;2024-02-16T19:59:24;11.60;93.00
27368;DHT22;14839;48.106;11.618;2024-02-16T20:01:49;11.60;93.00
27368;DHT22;14839;48.106;11.618;2024-02-16T20:04:16;11.60;93.20
27368;DHT22;14839;48.106;11.618;2024-02-16T20:06:42;11.60;93.40
27368;DHT22;14839;48.106;11.618;2024-02-16T20:09:09;11.50;93.70
27368;DHT22;14839;48.106;11.618;2024-02-16T20:11:34;11.50;93.90
27368;DHT22;14839;48.106;11.618;2024-02-16T20:14:00;11.40;94.00
27368;DHT22;14839;48.106;11.618;2024-02-16T20:16:26;11.40;94.20
27368;DHT22;14839;48.106;11.618;2024-02-16T20:18:51;11.40;94.40
27368;DHT22;14839;48.106;11.618;2024-02-16T20:21:17;11.30;94.50